map of YYL home
YYL - Airport
Location
City:  Lynn Lake, Manitoba, Canada
Name:Lynn Lake Airport
ICAO:CYYL
IATA:YYL

Details
Type:Airport (Airfield)
Use:Public/Civil
Latitude:5651'52"N (56.864444)
Longitude:10104'34"W (-101.076110)
Elevation:1170 ft (357 m)
Variation:5.82E (WMM2015 magnetic declination)
-0.10 annual change
Runways:2
Longest:5004 ft (1525 m), paved

Time
Time Zone:UTC-6 (DST-5)
Local Time:

Weather
METAR:CYYL 161800Z AUTO 32008G19KT 9SM CLR M18/M21 A3006 RMK SLP217
TAF:CYYL 161238Z 1613/1701 32018G28KT P6SM SCT020
TEMPO 1613/1620 4SM BLSN BKN020
FM162000 31010KT P6SM SCT020
RMK FCST BASED ON AUTO OBS. NXT FCST BY 161900Z

Related Locations
Nearby:
Farthest:YWKS: 11189 mi / 18006 km
Wilkins Runway (Casey), Upper Peterson Glacier, AQ

Find:

   beyond  
but within

Other Information
Maps:
NOTAMs:
Links:
Sources:

  
  • flag of Canada
  • flag of Manitoba
  

Airport Diagram

Airport diagram for YYL

Airport diagram PDF

Sectional Chart

Flight Planning
at skyvector.com

Satellite Image

Google Maps Satellite view

 

Copyright © 2004-2018 Karl L. Swartz. All rights reserved.
The Great Circle Mapper name and logo are trademarks of the Great Circle Mapper.
All other trademarks mentioned herein belong to their respective owners.
Please see credits for attibutions and further copyright information.

  Follow gcmap on Facebook Follow gcmap on Twitter Follow gcmap on Google+ GCmap on LinkedIn

hCard Microformat

Geo Microformat